<?xml version="1.0" encoding="UTF-8" standalone="no" ?>
<gpx xmlns="http://www.topografix.com/GPX/1/1" xmlns:xsi="http://www.w3.org/2001/XMLSchema-instance" xsi:schemaLocation="http://www.topografix.com/GPX/1/1 http://www.topografix.com/GPX/1/1/gpx.xsd" version="1.1" creator="VisuGPX - https://www.visugpx.com">
  <metadata>
    <name>ArBrug_Pennélé_Launay</name>
    <desc><![CDATA[Saint Martin des Champs
Départ - Arrivée :  Ar Brug
via la vallée de la Pennelé
8 km]]></desc>
  </metadata>
  <trk>
    <name><![CDATA[Penele_Launay_t]]></name>
    <trkseg>
      <trkpt lat="48.57853" lon="-3.85432">
        <ele>90.02</ele>
        <time>2013-05-20T13:19:15Z</time>
      </trkpt>
      <trkpt lat="48.57885" lon="-3.85431">
        <ele>90.98</ele>
        <time>2013-05-20T13:19:44Z</time>
      </trkpt>
      <trkpt lat="48.57933" lon="-3.85464">
        <ele>89.06</ele>
        <time>2013-05-20T13:20:33Z</time>
      </trkpt>
      <trkpt lat="48.57992" lon="-3.85491">
        <ele>90.5</ele>
        <time>2013-05-20T13:21:27Z</time>
      </trkpt>
      <trkpt lat="48.5809" lon="-3.85554">
        <ele>91.94</ele>
        <time>2013-05-20T13:23:07Z</time>
      </trkpt>
      <trkpt lat="48.58161" lon="-3.8559">
        <ele>92.9</ele>
        <time>2013-05-20T13:24:14Z</time>
      </trkpt>
      <trkpt lat="48.5816" lon="-3.85649">
        <ele>90.98</ele>
        <time>2013-05-20T13:24:52Z</time>
      </trkpt>
      <trkpt lat="48.58174" lon="-3.85751">
        <ele>88.1</ele>
        <time>2013-05-20T13:26:05Z</time>
      </trkpt>
      <trkpt lat="48.58199" lon="-3.85771">
        <ele>87.62</ele>
        <time>2013-05-20T13:26:39Z</time>
      </trkpt>
      <trkpt lat="48.58274" lon="-3.8584">
        <ele>86.18</ele>
        <time>2013-05-20T13:28:03Z</time>
      </trkpt>
      <trkpt lat="48.58321" lon="-3.85906">
        <ele>88.1</ele>
        <time>2013-05-20T13:28:58Z</time>
      </trkpt>
      <trkpt lat="48.58434" lon="-3.85986">
        <ele>88.58</ele>
        <time>2013-05-20T13:30:48Z</time>
      </trkpt>
      <trkpt lat="48.58508" lon="-3.86096">
        <ele>91.46</ele>
        <time>2013-05-20T13:32:20Z</time>
      </trkpt>
      <trkpt lat="48.58572" lon="-3.86215">
        <ele>91.94</ele>
        <time>2013-05-20T13:33:49Z</time>
      </trkpt>
      <trkpt lat="48.58624" lon="-3.86357">
        <ele>92.42</ele>
        <time>2013-05-20T13:35:24Z</time>
      </trkpt>
      <trkpt lat="48.58666" lon="-3.86459">
        <ele>92.42</ele>
        <time>2013-05-20T13:36:37Z</time>
      </trkpt>
      <trkpt lat="48.58672" lon="-3.86492">
        <ele>92.42</ele>
        <time>2013-05-20T13:36:57Z</time>
      </trkpt>
      <trkpt lat="48.58653" lon="-3.86544">
        <ele>93.87</ele>
        <time>2013-05-20T13:37:34Z</time>
      </trkpt>
      <trkpt lat="48.58655" lon="-3.86604">
        <ele>93.39</ele>
        <time>2013-05-20T13:38:19Z</time>
      </trkpt>
      <trkpt lat="48.58643" lon="-3.86657">
        <ele>93.87</ele>
        <time>2013-05-20T13:38:58Z</time>
      </trkpt>
      <trkpt lat="48.58655" lon="-3.86675">
        <ele>93.39</ele>
        <time>2013-05-20T13:39:27Z</time>
      </trkpt>
      <trkpt lat="48.58685" lon="-3.86697">
        <ele>92.9</ele>
        <time>2013-05-20T13:39:59Z</time>
      </trkpt>
      <trkpt lat="48.58722" lon="-3.86713">
        <ele>93.39</ele>
        <time>2013-05-20T13:40:36Z</time>
      </trkpt>
      <trkpt lat="48.58776" lon="-3.86705">
        <ele>92.42</ele>
        <time>2013-05-20T13:41:26Z</time>
      </trkpt>
      <trkpt lat="48.58847" lon="-3.86713">
        <ele>90.98</ele>
        <time>2013-05-20T13:42:30Z</time>
      </trkpt>
      <trkpt lat="48.589" lon="-3.86733">
        <ele>89.06</ele>
        <time>2013-05-20T13:43:27Z</time>
      </trkpt>
      <trkpt lat="48.58904" lon="-3.86759">
        <ele>87.62</ele>
        <time>2013-05-20T13:43:45Z</time>
      </trkpt>
      <trkpt lat="48.58927" lon="-3.8678">
        <ele>86.18</ele>
        <time>2013-05-20T13:44:16Z</time>
      </trkpt>
      <trkpt lat="48.58948" lon="-3.86782">
        <ele>86.18</ele>
        <time>2013-05-20T13:44:34Z</time>
      </trkpt>
      <trkpt lat="48.59046" lon="-3.86823">
        <ele>81.85</ele>
        <time>2013-05-20T13:46:05Z</time>
      </trkpt>
      <trkpt lat="48.5905" lon="-3.86826">
        <ele>81.85</ele>
        <time>2013-05-20T13:46:09Z</time>
      </trkpt>
      <trkpt lat="48.5909" lon="-3.86853">
        <ele>78.48</ele>
        <time>2013-05-20T13:46:56Z</time>
      </trkpt>
      <trkpt lat="48.59123" lon="-3.86883">
        <ele>77.52</ele>
        <time>2013-05-20T13:47:30Z</time>
      </trkpt>
      <trkpt lat="48.59138" lon="-3.86905">
        <ele>75.12</ele>
        <time>2013-05-20T13:47:49Z</time>
      </trkpt>
      <trkpt lat="48.59138" lon="-3.8691">
        <ele>75.12</ele>
        <time>2013-05-20T13:47:52Z</time>
      </trkpt>
      <trkpt lat="48.59173" lon="-3.8697">
        <ele>71.27</ele>
        <time>2013-05-20T13:48:46Z</time>
      </trkpt>
      <trkpt lat="48.5924" lon="-3.86996">
        <ele>65.99</ele>
        <time>2013-05-20T13:49:53Z</time>
      </trkpt>
      <trkpt lat="48.59266" lon="-3.87003">
        <ele>64.55</ele>
        <time>2013-05-20T13:50:23Z</time>
      </trkpt>
      <trkpt lat="48.59314" lon="-3.87012">
        <ele>60.22</ele>
        <time>2013-05-20T13:51:15Z</time>
      </trkpt>
      <trkpt lat="48.59374" lon="-3.87008">
        <ele>55.89</ele>
        <time>2013-05-20T13:52:14Z</time>
      </trkpt>
      <trkpt lat="48.59397" lon="-3.87016">
        <ele>52.05</ele>
        <time>2013-05-20T13:52:39Z</time>
      </trkpt>
      <trkpt lat="48.59423" lon="-3.87016">
        <ele>46.76</ele>
        <time>2013-05-20T13:53:11Z</time>
      </trkpt>
      <trkpt lat="48.59453" lon="-3.8702">
        <ele>42.44</ele>
        <time>2013-05-20T13:53:44Z</time>
      </trkpt>
      <trkpt lat="48.59472" lon="-3.87042">
        <ele>40.51</ele>
        <time>2013-05-20T13:54:03Z</time>
      </trkpt>
      <trkpt lat="48.59494" lon="-3.87083">
        <ele>37.15</ele>
        <time>2013-05-20T13:54:36Z</time>
      </trkpt>
      <trkpt lat="48.59511" lon="-3.8713">
        <ele>33.78</ele>
        <time>2013-05-20T13:55:08Z</time>
      </trkpt>
      <trkpt lat="48.59534" lon="-3.87181">
        <ele>29.46</ele>
        <time>2013-05-20T13:55:46Z</time>
      </trkpt>
      <trkpt lat="48.59552" lon="-3.87223">
        <ele>26.57</ele>
        <time>2013-05-20T13:56:16Z</time>
      </trkpt>
      <trkpt lat="48.59543" lon="-3.87269">
        <ele>23.69</ele>
        <time>2013-05-20T13:56:48Z</time>
      </trkpt>
      <trkpt lat="48.59508" lon="-3.87357">
        <ele>21.29</ele>
        <time>2013-05-20T13:57:52Z</time>
      </trkpt>
      <trkpt lat="48.59515" lon="-3.87391">
        <ele>19.36</ele>
        <time>2013-05-20T13:58:31Z</time>
      </trkpt>
      <trkpt lat="48.59522" lon="-3.8742">
        <ele>18.4</ele>
        <time>2013-05-20T14:01:09Z</time>
      </trkpt>
      <trkpt lat="48.59519" lon="-3.8746">
        <ele>19.36</ele>
        <time>2013-05-20T14:01:40Z</time>
      </trkpt>
      <trkpt lat="48.59482" lon="-3.875">
        <ele>22.25</ele>
        <time>2013-05-20T14:02:57Z</time>
      </trkpt>
      <trkpt lat="48.59398" lon="-3.87513">
        <ele>26.09</ele>
        <time>2013-05-20T14:20:05Z</time>
      </trkpt>
      <trkpt lat="48.59381" lon="-3.87519">
        <ele>26.57</ele>
        <time>2013-05-20T14:20:23Z</time>
      </trkpt>
      <trkpt lat="48.59352" lon="-3.87584">
        <ele>28.98</ele>
        <time>2013-05-20T14:21:20Z</time>
      </trkpt>
      <trkpt lat="48.59349" lon="-3.87613">
        <ele>30.42</ele>
        <time>2013-05-20T14:21:44Z</time>
      </trkpt>
      <trkpt lat="48.59382" lon="-3.87661">
        <ele>34.26</ele>
        <time>2013-05-20T14:22:26Z</time>
      </trkpt>
      <trkpt lat="48.59391" lon="-3.87692">
        <ele>35.71</ele>
        <time>2013-05-20T14:22:50Z</time>
      </trkpt>
      <trkpt lat="48.59394" lon="-3.87719">
        <ele>35.71</ele>
        <time>2013-05-20T14:23:07Z</time>
      </trkpt>
      <trkpt lat="48.5941" lon="-3.87758">
        <ele>36.67</ele>
        <time>2013-05-20T14:23:51Z</time>
      </trkpt>
      <trkpt lat="48.59454" lon="-3.87793">
        <ele>39.55</ele>
        <time>2013-05-20T14:24:50Z</time>
      </trkpt>
      <trkpt lat="48.5946" lon="-3.87808">
        <ele>39.55</ele>
        <time>2013-05-20T14:25:06Z</time>
      </trkpt>
      <trkpt lat="48.59517" lon="-3.88004">
        <ele>45.32</ele>
        <time>2013-05-20T14:34:42Z</time>
      </trkpt>
      <trkpt lat="48.59511" lon="-3.88103">
        <ele>50.61</ele>
        <time>2013-05-20T14:37:28Z</time>
      </trkpt>
      <trkpt lat="48.59546" lon="-3.88171">
        <ele>50.13</ele>
        <time>2013-05-20T14:38:40Z</time>
      </trkpt>
      <trkpt lat="48.59595" lon="-3.8821">
        <ele>53.01</ele>
        <time>2013-05-20T14:39:42Z</time>
      </trkpt>
      <trkpt lat="48.59598" lon="-3.88255">
        <ele>54.93</ele>
        <time>2013-05-20T14:40:20Z</time>
      </trkpt>
      <trkpt lat="48.59583" lon="-3.88274">
        <ele>55.41</ele>
        <time>2013-05-20T14:40:41Z</time>
      </trkpt>
      <trkpt lat="48.5955" lon="-3.88342">
        <ele>57.34</ele>
        <time>2013-05-20T14:41:37Z</time>
      </trkpt>
      <trkpt lat="48.59542" lon="-3.88369">
        <ele>58.78</ele>
        <time>2013-05-20T14:42:14Z</time>
      </trkpt>
      <trkpt lat="48.59521" lon="-3.88392">
        <ele>62.62</ele>
        <time>2013-05-20T14:42:39Z</time>
      </trkpt>
      <trkpt lat="48.59495" lon="-3.88419">
        <ele>65.51</ele>
        <time>2013-05-20T14:43:31Z</time>
      </trkpt>
      <trkpt lat="48.595" lon="-3.88449">
        <ele>67.43</ele>
        <time>2013-05-20T14:44:24Z</time>
      </trkpt>
      <trkpt lat="48.59508" lon="-3.88482">
        <ele>71.76</ele>
        <time>2013-05-20T14:44:53Z</time>
      </trkpt>
      <trkpt lat="48.59534" lon="-3.88525">
        <ele>75.12</ele>
        <time>2013-05-20T14:45:35Z</time>
      </trkpt>
      <trkpt lat="48.59543" lon="-3.88549">
        <ele>76.08</ele>
        <time>2013-05-20T14:45:56Z</time>
      </trkpt>
      <trkpt lat="48.59562" lon="-3.8859">
        <ele>77.04</ele>
        <time>2013-05-20T14:46:32Z</time>
      </trkpt>
      <trkpt lat="48.59553" lon="-3.88616">
        <ele>76.56</ele>
        <time>2013-05-20T14:47:04Z</time>
      </trkpt>
      <trkpt lat="48.59546" lon="-3.88635">
        <ele>76.56</ele>
        <time>2013-05-20T14:47:20Z</time>
      </trkpt>
      <trkpt lat="48.59503" lon="-3.8868">
        <ele>78.97</ele>
        <time>2013-05-20T14:48:11Z</time>
      </trkpt>
      <trkpt lat="48.59469" lon="-3.88726">
        <ele>81.37</ele>
        <time>2013-05-20T14:48:57Z</time>
      </trkpt>
      <trkpt lat="48.59433" lon="-3.88778">
        <ele>85.21</ele>
        <time>2013-05-20T14:49:51Z</time>
      </trkpt>
      <trkpt lat="48.5943" lon="-3.88779">
        <ele>85.21</ele>
        <time>2013-05-20T14:49:54Z</time>
      </trkpt>
      <trkpt lat="48.59357" lon="-3.88767">
        <ele>86.66</ele>
        <time>2013-05-20T14:51:02Z</time>
      </trkpt>
      <trkpt lat="48.59269" lon="-3.88725">
        <ele>85.69</ele>
        <time>2013-05-20T14:52:27Z</time>
      </trkpt>
      <trkpt lat="48.59177" lon="-3.88668">
        <ele>81.37</ele>
        <time>2013-05-20T14:53:56Z</time>
      </trkpt>
      <trkpt lat="48.59145" lon="-3.88623">
        <ele>78</ele>
        <time>2013-05-20T14:54:41Z</time>
      </trkpt>
      <trkpt lat="48.59133" lon="-3.88581">
        <ele>75.12</ele>
        <time>2013-05-20T14:55:31Z</time>
      </trkpt>
      <trkpt lat="48.59124" lon="-3.88585">
        <ele>74.64</ele>
        <time>2013-05-20T14:56:58Z</time>
      </trkpt>
      <trkpt lat="48.59106" lon="-3.88568">
        <ele>72.72</ele>
        <time>2013-05-20T14:57:39Z</time>
      </trkpt>
      <trkpt lat="48.59077" lon="-3.88535">
        <ele>76.08</ele>
        <time>2013-05-20T14:58:20Z</time>
      </trkpt>
      <trkpt lat="48.59066" lon="-3.88511">
        <ele>80.89</ele>
        <time>2013-05-20T14:58:57Z</time>
      </trkpt>
      <trkpt lat="48.59059" lon="-3.88505">
        <ele>84.25</ele>
        <time>2013-05-20T14:59:13Z</time>
      </trkpt>
      <trkpt lat="48.59041" lon="-3.88486">
        <ele>86.66</ele>
        <time>2013-05-20T14:59:37Z</time>
      </trkpt>
      <trkpt lat="48.59015" lon="-3.88429">
        <ele>90.02</ele>
        <time>2013-05-20T15:00:24Z</time>
      </trkpt>
      <trkpt lat="48.58993" lon="-3.88381">
        <ele>91.94</ele>
        <time>2013-05-20T15:01:06Z</time>
      </trkpt>
      <trkpt lat="48.58988" lon="-3.8837">
        <ele>92.42</ele>
        <time>2013-05-20T15:01:15Z</time>
      </trkpt>
      <trkpt lat="48.58957" lon="-3.88303">
        <ele>93.39</ele>
        <time>2013-05-20T15:02:14Z</time>
      </trkpt>
      <trkpt lat="48.58906" lon="-3.88213">
        <ele>94.83</ele>
        <time>2013-05-20T15:03:33Z</time>
      </trkpt>
      <trkpt lat="48.5882" lon="-3.88082">
        <ele>93.39</ele>
        <time>2013-05-20T15:05:35Z</time>
      </trkpt>
      <trkpt lat="48.58783" lon="-3.88031">
        <ele>91.94</ele>
        <time>2013-05-20T15:06:22Z</time>
      </trkpt>
      <trkpt lat="48.58739" lon="-3.87981">
        <ele>88.58</ele>
        <time>2013-05-20T15:07:14Z</time>
      </trkpt>
      <trkpt lat="48.58716" lon="-3.87954">
        <ele>84.73</ele>
        <time>2013-05-20T15:07:42Z</time>
      </trkpt>
      <trkpt lat="48.58672" lon="-3.87904">
        <ele>82.81</ele>
        <time>2013-05-20T15:08:34Z</time>
      </trkpt>
      <trkpt lat="48.58641" lon="-3.87873">
        <ele>82.33</ele>
        <time>2013-05-20T15:09:08Z</time>
      </trkpt>
      <trkpt lat="48.58617" lon="-3.87896">
        <ele>83.77</ele>
        <time>2013-05-20T15:09:38Z</time>
      </trkpt>
      <trkpt lat="48.58585" lon="-3.87971">
        <ele>86.66</ele>
        <time>2013-05-20T15:10:33Z</time>
      </trkpt>
      <trkpt lat="48.58568" lon="-3.87984">
        <ele>87.62</ele>
        <time>2013-05-20T15:10:52Z</time>
      </trkpt>
      <trkpt lat="48.58525" lon="-3.87999">
        <ele>88.1</ele>
        <time>2013-05-20T15:11:51Z</time>
      </trkpt>
      <trkpt lat="48.58501" lon="-3.87984">
        <ele>87.14</ele>
        <time>2013-05-20T15:12:56Z</time>
      </trkpt>
      <trkpt lat="48.58464" lon="-3.87987">
        <ele>86.18</ele>
        <time>2013-05-20T15:13:29Z</time>
      </trkpt>
      <trkpt lat="48.58396" lon="-3.87994">
        <ele>81.85</ele>
        <time>2013-05-20T15:14:31Z</time>
      </trkpt>
      <trkpt lat="48.58301" lon="-3.87999">
        <ele>77.52</ele>
        <time>2013-05-20T15:15:55Z</time>
      </trkpt>
      <trkpt lat="48.5824" lon="-3.87966">
        <ele>74.16</ele>
        <time>2013-05-20T15:16:53Z</time>
      </trkpt>
      <trkpt lat="48.58213" lon="-3.87915">
        <ele>72.72</ele>
        <time>2013-05-20T15:17:30Z</time>
      </trkpt>
      <trkpt lat="48.58211" lon="-3.87847">
        <ele>69.83</ele>
        <time>2013-05-20T15:18:13Z</time>
      </trkpt>
      <trkpt lat="48.58244" lon="-3.87763">
        <ele>65.99</ele>
        <time>2013-05-20T15:19:10Z</time>
      </trkpt>
      <trkpt lat="48.58279" lon="-3.87678">
        <ele>61.18</ele>
        <time>2013-05-20T15:20:11Z</time>
      </trkpt>
      <trkpt lat="48.58285" lon="-3.876">
        <ele>58.3</ele>
        <time>2013-05-20T15:21:04Z</time>
      </trkpt>
      <trkpt lat="48.5828" lon="-3.8757">
        <ele>56.86</ele>
        <time>2013-05-20T15:21:28Z</time>
      </trkpt>
      <trkpt lat="48.58267" lon="-3.87478">
        <ele>53.01</ele>
        <time>2013-05-20T15:22:25Z</time>
      </trkpt>
      <trkpt lat="48.58255" lon="-3.87437">
        <ele>51.57</ele>
        <time>2013-05-20T15:22:55Z</time>
      </trkpt>
      <trkpt lat="48.58255" lon="-3.87427">
        <ele>51.57</ele>
        <time>2013-05-20T15:23:02Z</time>
      </trkpt>
      <trkpt lat="48.58241" lon="-3.87406">
        <ele>51.09</ele>
        <time>2013-05-20T15:23:20Z</time>
      </trkpt>
      <trkpt lat="48.58228" lon="-3.87387">
        <ele>50.13</ele>
        <time>2013-05-20T15:23:37Z</time>
      </trkpt>
      <trkpt lat="48.58231" lon="-3.87338">
        <ele>49.65</ele>
        <time>2013-05-20T15:24:26Z</time>
      </trkpt>
      <trkpt lat="48.58233" lon="-3.87327">
        <ele>49.65</ele>
        <time>2013-05-20T15:25:39Z</time>
      </trkpt>
      <trkpt lat="48.58263" lon="-3.87274">
        <ele>51.09</ele>
        <time>2013-05-20T15:26:26Z</time>
      </trkpt>
      <trkpt lat="48.58318" lon="-3.87172">
        <ele>50.61</ele>
        <time>2013-05-20T15:27:44Z</time>
      </trkpt>
      <trkpt lat="48.58329" lon="-3.87151">
        <ele>50.13</ele>
        <time>2013-05-20T15:28:27Z</time>
      </trkpt>
      <trkpt lat="48.58323" lon="-3.87099">
        <ele>49.16</ele>
        <time>2013-05-20T15:28:58Z</time>
      </trkpt>
      <trkpt lat="48.58321" lon="-3.87038">
        <ele>48.68</ele>
        <time>2013-05-20T15:29:40Z</time>
      </trkpt>
      <trkpt lat="48.58299" lon="-3.86982">
        <ele>50.13</ele>
        <time>2013-05-20T15:30:19Z</time>
      </trkpt>
      <trkpt lat="48.58278" lon="-3.86909">
        <ele>51.57</ele>
        <time>2013-05-20T15:31:12Z</time>
      </trkpt>
      <trkpt lat="48.58245" lon="-3.86819">
        <ele>53.97</ele>
        <time>2013-05-20T15:32:11Z</time>
      </trkpt>
      <trkpt lat="48.58196" lon="-3.86631">
        <ele>54.45</ele>
        <time>2013-05-20T15:34:08Z</time>
      </trkpt>
      <trkpt lat="48.58157" lon="-3.86506">
        <ele>55.89</ele>
        <time>2013-05-20T15:35:37Z</time>
      </trkpt>
      <trkpt lat="48.58155" lon="-3.86502">
        <ele>56.37</ele>
        <time>2013-05-20T15:35:41Z</time>
      </trkpt>
      <trkpt lat="48.58135" lon="-3.86434">
        <ele>56.86</ele>
        <time>2013-05-20T15:36:25Z</time>
      </trkpt>
      <trkpt lat="48.58105" lon="-3.86262">
        <ele>59.74</ele>
        <time>2013-05-20T15:38:13Z</time>
      </trkpt>
      <trkpt lat="48.58074" lon="-3.8617">
        <ele>61.18</ele>
        <time>2013-05-20T15:39:22Z</time>
      </trkpt>
      <trkpt lat="48.58046" lon="-3.86136">
        <ele>63.1</ele>
        <time>2013-05-20T15:40:10Z</time>
      </trkpt>
      <trkpt lat="48.58016" lon="-3.86132">
        <ele>63.1</ele>
        <time>2013-05-20T15:40:41Z</time>
      </trkpt>
      <trkpt lat="48.5797" lon="-3.86138">
        <ele>64.07</ele>
        <time>2013-05-20T15:41:33Z</time>
      </trkpt>
      <trkpt lat="48.57878" lon="-3.86119">
        <ele>67.43</ele>
        <time>2013-05-20T15:42:55Z</time>
      </trkpt>
      <trkpt lat="48.57837" lon="-3.86063">
        <ele>71.27</ele>
        <time>2013-05-20T15:43:50Z</time>
      </trkpt>
      <trkpt lat="48.57793" lon="-3.86002">
        <ele>73.2</ele>
        <time>2013-05-20T15:44:54Z</time>
      </trkpt>
      <trkpt lat="48.57779" lon="-3.85978">
        <ele>74.16</ele>
        <time>2013-05-20T15:45:12Z</time>
      </trkpt>
      <trkpt lat="48.57785" lon="-3.85954">
        <ele>74.16</ele>
        <time>2013-05-20T15:45:28Z</time>
      </trkpt>
      <trkpt lat="48.57799" lon="-3.85874">
        <ele>78</ele>
        <time>2013-05-20T15:46:21Z</time>
      </trkpt>
      <trkpt lat="48.57803" lon="-3.85824">
        <ele>79.93</ele>
        <time>2013-05-20T15:47:08Z</time>
      </trkpt>
      <trkpt lat="48.57828" lon="-3.85716">
        <ele>86.18</ele>
        <time>2013-05-20T15:51:09Z</time>
      </trkpt>
      <trkpt lat="48.57837" lon="-3.85644">
        <ele>89.06</ele>
        <time>2013-05-20T15:52:04Z</time>
      </trkpt>
      <trkpt lat="48.57846" lon="-3.85587">
        <ele>91.46</ele>
        <time>2013-05-20T15:52:49Z</time>
      </trkpt>
      <trkpt lat="48.57853" lon="-3.85522">
        <ele>93.87</ele>
        <time>2013-05-20T15:53:52Z</time>
      </trkpt>
      <trkpt lat="48.57853" lon="-3.85507">
        <ele>94.35</ele>
        <time>2013-05-20T15:54:06Z</time>
      </trkpt>
      <trkpt lat="48.57851" lon="-3.85426">
        <ele>95.79</ele>
        <time>2013-05-20T15:55:04Z</time>
      </trkpt>
    </trkseg>
  </trk>
</gpx>